sensor_id;sensor_type;location;lat;lon;timestamp;P1;durP1;ratioP1;P2;durP2;ratioP2
67558;SDS011;54388;53.536;49.300;2023-05-16T00:01:21;7.32;;;4.32;;
67558;SDS011;54388;53.536;49.300;2023-05-16T00:03:49;9.98;;;4.05;;
67558;SDS011;54388;53.536;49.300;2023-05-16T00:06:15;8.88;;;4.53;;
67558;SDS011;54388;53.536;49.300;2023-05-16T00:08:42;8.85;;;4.70;;
67558;SDS011;54388;53.536;49.300;2023-05-16T00:11:08;10.20;;;5.18;;
67558;SDS011;54388;53.536;49.300;2023-05-16T00:13:35;9.43;;;4.63;;
67558;SDS011;54388;53.536;49.300;2023-05-16T00:16:02;8.00;;;4.40;;
67558;SDS011;54388;53.536;49.300;2023-05-16T00:18:29;10.35;;;4.70;;
67558;SDS011;54388;53.536;49.300;2023-05-16T00:20:56;9.52;;;4.88;;
67558;SDS011;54388;53.536;49.300;2023-05-16T00:23:22;8.90;;;4.78;;
67558;SDS011;54388;53.536;49.300;2023-05-16T00:25:54;9.30;;;5.10;;
67558;SDS011;54388;53.536;49.300;2023-05-16T00:28:21;11.23;;;5.28;;
67558;SDS011;54388;53.536;49.300;2023-05-16T00:30:47;9.43;;;4.95;;
67558;SDS011;54388;53.536;49.300;2023-05-16T00:33:14;8.18;;;3.70;;
67558;SDS011;54388;53.536;49.300;2023-05-16T00:35:40;7.88;;;3.78;;
67558;SDS011;54388;53.536;49.300;2023-05-16T00:38:07;7.13;;;3.88;;
67558;SDS011;54388;53.536;49.300;2023-05-16T00:40:33;6.57;;;3.60;;
67558;SDS011;54388;53.536;49.300;2023-05-16T00:42:59;7.80;;;3.70;;
67558;SDS011;54388;53.536;49.300;2023-05-16T00:45:26;8.55;;;3.63;;
67558;SDS011;54388;53.536;49.300;2023-05-16T00:47:53;9.77;;;4.07;;
67558;SDS011;54388;53.536;49.300;2023-05-16T00:50:20;7.57;;;4.00;;
67558;SDS011;54388;53.536;49.300;2023-05-16T00:52:46;10.50;;;4.05;;
67558;SDS011;54388;53.536;49.300;2023-05-16T00:55:13;7.53;;;4.07;;
67558;SDS011;54388;53.536;49.300;2023-05-16T00:57:40;9.10;;;4.15;;
67558;SDS011;54388;53.536;49.300;2023-05-16T01:00:07;7.68;;;4.00;;
67558;SDS011;54388;53.536;49.300;2023-05-16T01:02:36;10.85;;;4.28;;
67558;SDS011;54388;53.536;49.300;2023-05-16T01:05:03;5.50;;;3.53;;
67558;SDS011;54388;53.536;49.300;2023-05-16T01:07:32;7.63;;;3.78;;
67558;SDS011;54388;53.536;49.300;2023-05-16T01:09:59;8.02;;;3.90;;
67558;SDS011;54388;53.536;49.300;2023-05-16T01:12:47;7.40;;;4.30;;
67558;SDS011;54388;53.536;49.300;2023-05-16T01:15:21;7.60;;;3.92;;
67558;SDS011;54388;53.536;49.300;2023-05-16T01:17:59;6.47;;;3.58;;
67558;SDS011;54388;53.536;49.300;2023-05-16T01:26:32;9.07;;;4.03;;
67558;SDS011;54388;53.536;49.300;2023-05-16T01:28:58;9.35;;;4.13;;
67558;SDS011;54388;53.536;49.300;2023-05-16T01:31:26;8.15;;;4.20;;
67558;SDS011;54388;53.536;49.300;2023-05-16T01:33:53;9.50;;;4.20;;
67558;SDS011;54388;53.536;49.300;2023-05-16T01:36:35;8.45;;;4.10;;
67558;SDS011;54388;53.536;49.300;2023-05-16T01:42:13;5.05;;;3.15;;
67558;SDS011;54388;53.536;49.300;2023-05-16T01:44:45;7.68;;;3.53;;
67558;SDS011;54388;53.536;49.300;2023-05-16T01:47:25;7.35;;;4.35;;
67558;SDS011;54388;53.536;49.300;2023-05-16T01:49:56;8.75;;;4.60;;
67558;SDS011;54388;53.536;49.300;2023-05-16T01:52:37;14.63;;;4.80;;
67558;SDS011;54388;53.536;49.300;2023-05-16T01:55:10;14.43;;;6.47;;
67558;SDS011;54388;53.536;49.300;2023-05-16T01:57:41;9.02;;;4.97;;
67558;SDS011;54388;53.536;49.300;2023-05-16T02:00:12;11.00;;;5.15;;
67558;SDS011;54388;53.536;49.300;2023-05-16T02:02:38;12.02;;;4.80;;
67558;SDS011;54388;53.536;49.300;2023-05-16T02:05:05;9.00;;;4.53;;
67558;SDS011;54388;53.536;49.300;2023-05-16T02:07:32;10.80;;;5.00;;
67558;SDS011;54388;53.536;49.300;2023-05-16T02:09:59;9.77;;;4.93;;
67558;SDS011;54388;53.536;49.300;2023-05-16T02:12:26;8.70;;;4.32;;
67558;SDS011;54388;53.536;49.300;2023-05-16T02:14:52;8.68;;;4.95;;
67558;SDS011;54388;53.536;49.300;2023-05-16T02:17:19;14.88;;;5.68;;
67558;SDS011;54388;53.536;49.300;2023-05-16T02:19:45;8.82;;;4.93;;
67558;SDS011;54388;53.536;49.300;2023-05-16T02:22:12;13.43;;;5.97;;
67558;SDS011;54388;53.536;49.300;2023-05-16T02:24:43;8.55;;;4.80;;
67558;SDS011;54388;53.536;49.300;2023-05-16T02:27:10;7.88;;;4.30;;
67558;SDS011;54388;53.536;49.300;2023-05-16T02:29:36;12.18;;;4.72;;
67558;SDS011;54388;53.536;49.300;2023-05-16T02:32:03;8.95;;;4.47;;
67558;SDS011;54388;53.536;49.300;2023-05-16T02:34:29;8.77;;;4.60;;
67558;SDS011;54388;53.536;49.300;2023-05-16T02:36:56;8.48;;;5.00;;
67558;SDS011;54388;53.536;49.300;2023-05-16T02:39:22;9.57;;;4.03;;
67558;SDS011;54388;53.536;49.300;2023-05-16T02:41:49;13.52;;;4.53;;
67558;SDS011;54388;53.536;49.300;2023-05-16T02:44:15;9.77;;;5.05;;
67558;SDS011;54388;53.536;49.300;2023-05-16T02:46:41;9.25;;;4.95;;
67558;SDS011;54388;53.536;49.300;2023-05-16T02:49:08;11.57;;;5.15;;
67558;SDS011;54388;53.536;49.300;2023-05-16T02:51:34;16.13;;;5.13;;
67558;SDS011;54388;53.536;49.300;2023-05-16T02:54:01;11.75;;;4.90;;
67558;SDS011;54388;53.536;49.300;2023-05-16T02:56:27;11.05;;;5.15;;
67558;SDS011;54388;53.536;49.300;2023-05-16T02:58:54;12.40;;;5.47;;
67558;SDS011;54388;53.536;49.300;2023-05-16T03:01:21;8.52;;;4.82;;
67558;SDS011;54388;53.536;49.300;2023-05-16T03:03:47;10.45;;;5.13;;
67558;SDS011;54388;53.536;49.300;2023-05-16T03:06:14;16.98;;;5.43;;
67558;SDS011;54388;53.536;49.300;2023-05-16T03:08:40;10.68;;;5.25;;
67558;SDS011;54388;53.536;49.300;2023-05-16T03:11:07;11.75;;;4.90;;
67558;SDS011;54388;53.536;49.300;2023-05-16T03:13:33;13.40;;;5.50;;
67558;SDS011;54388;53.536;49.300;2023-05-16T03:16:00;15.45;;;5.47;;
67558;SDS011;54388;53.536;49.300;2023-05-16T03:18:26;12.73;;;5.40;;
67558;SDS011;54388;53.536;49.300;2023-05-16T03:20:53;12.20;;;4.80;;
67558;SDS011;54388;53.536;49.300;2023-05-16T03:23:19;14.02;;;5.18;;
67558;SDS011;54388;53.536;49.300;2023-05-16T03:25:52;9.40;;;4.65;;
67558;SDS011;54388;53.536;49.300;2023-05-16T03:28:18;16.63;;;5.65;;
67558;SDS011;54388;53.536;49.300;2023-05-16T03:30:45;11.23;;;5.07;;
67558;SDS011;54388;53.536;49.300;2023-05-16T03:33:11;12.95;;;6.28;;
67558;SDS011;54388;53.536;49.300;2023-05-16T03:35:38;10.13;;;5.20;;
67558;SDS011;54388;53.536;49.300;2023-05-16T03:38:05;21.50;;;6.25;;
67558;SDS011;54388;53.536;49.300;2023-05-16T03:40:32;10.80;;;5.15;;
67558;SDS011;54388;53.536;49.300;2023-05-16T03:42:58;23.52;;;6.93;;
67558;SDS011;54388;53.536;49.300;2023-05-16T03:45:25;14.68;;;5.95;;
67558;SDS011;54388;53.536;49.300;2023-05-16T03:47:51;12.35;;;5.93;;
67558;SDS011;54388;53.536;49.300;2023-05-16T03:50:17;21.20;;;6.00;;
67558;SDS011;54388;53.536;49.300;2023-05-16T03:52:44;11.38;;;5.38;;
67558;SDS011;54388;53.536;49.300;2023-05-16T03:55:10;9.23;;;5.00;;
67558;SDS011;54388;53.536;49.300;2023-05-16T03:57:38;18.02;;;5.65;;
67558;SDS011;54388;53.536;49.300;2023-05-16T04:00:07;11.30;;;5.47;;
67558;SDS011;54388;53.536;49.300;2023-05-16T04:02:35;13.93;;;5.13;;
67558;SDS011;54388;53.536;49.300;2023-05-16T04:05:02;13.02;;;5.20;;
67558;SDS011;54388;53.536;49.300;2023-05-16T04:07:28;10.80;;;5.07;;
67558;SDS011;54388;53.536;49.300;2023-05-16T04:09:55;6.82;;;5.15;;
67558;SDS011;54388;53.536;49.300;2023-05-16T04:12:23;13.85;;;5.85;;
67558;SDS011;54388;53.536;49.300;2023-05-16T04:14:49;10.55;;;5.45;;
67558;SDS011;54388;53.536;49.300;2023-05-16T04:17:16;20.05;;;5.82;;
67558;SDS011;54388;53.536;49.300;2023-05-16T04:19:42;18.92;;;6.00;;
67558;SDS011;54388;53.536;49.300;2023-05-16T04:22:09;9.95;;;5.90;;
67558;SDS011;54388;53.536;49.300;2023-05-16T04:24:40;17.10;;;6.72;;
67558;SDS011;54388;53.536;49.300;2023-05-16T04:27:07;15.25;;;6.57;;
67558;SDS011;54388;53.536;49.300;2023-05-16T04:29:34;14.88;;;5.80;;
67558;SDS011;54388;53.536;49.300;2023-05-16T04:32:01;16.52;;;5.53;;
67558;SDS011;54388;53.536;49.300;2023-05-16T04:34:28;14.82;;;5.80;;
67558;SDS011;54388;53.536;49.300;2023-05-16T04:36:55;11.85;;;5.53;;
67558;SDS011;54388;53.536;49.300;2023-05-16T04:39:21;10.43;;;5.28;;
67558;SDS011;54388;53.536;49.300;2023-05-16T04:41:48;14.95;;;5.57;;
67558;SDS011;54388;53.536;49.300;2023-05-16T04:44:15;18.40;;;5.90;;
67558;SDS011;54388;53.536;49.300;2023-05-16T04:46:41;16.58;;;5.93;;
67558;SDS011;54388;53.536;49.300;2023-05-16T04:49:08;12.07;;;6.32;;
67558;SDS011;54388;53.536;49.300;2023-05-16T04:51:35;16.10;;;6.55;;
67558;SDS011;54388;53.536;49.300;2023-05-16T04:54:02;15.15;;;6.25;;
67558;SDS011;54388;53.536;49.300;2023-05-16T04:56:28;26.88;;;7.57;;
67558;SDS011;54388;53.536;49.300;2023-05-16T04:58:55;20.70;;;6.97;;
67558;SDS011;54388;53.536;49.300;2023-05-16T05:01:22;16.42;;;6.60;;
67558;SDS011;54388;53.536;49.300;2023-05-16T05:03:48;16.25;;;7.30;;
67558;SDS011;54388;53.536;49.300;2023-05-16T05:06:14;19.42;;;7.90;;
67558;SDS011;54388;53.536;49.300;2023-05-16T05:08:41;16.55;;;6.60;;
67558;SDS011;54388;53.536;49.300;2023-05-16T05:11:07;13.75;;;7.70;;
67558;SDS011;54388;53.536;49.300;2023-05-16T05:13:34;21.40;;;9.25;;
67558;SDS011;54388;53.536;49.300;2023-05-16T05:16:00;14.38;;;7.95;;
67558;SDS011;54388;53.536;49.300;2023-05-16T05:18:29;11.90;;;7.35;;
67558;SDS011;54388;53.536;49.300;2023-05-16T05:20:56;10.32;;;6.80;;
67558;SDS011;54388;53.536;49.300;2023-05-16T05:23:22;20.88;;;8.50;;
67558;SDS011;54388;53.536;49.300;2023-05-16T05:25:54;13.00;;;7.22;;
67558;SDS011;54388;53.536;49.300;2023-05-16T05:28:21;11.63;;;8.15;;
67558;SDS011;54388;53.536;49.300;2023-05-16T05:30:47;15.68;;;8.95;;
67558;SDS011;54388;53.536;49.300;2023-05-16T05:33:15;14.10;;;9.52;;
67558;SDS011;54388;53.536;49.300;2023-05-16T05:35:45;12.88;;;8.95;;
67558;SDS011;54388;53.536;49.300;2023-05-16T05:38:12;16.80;;;10.20;;
67558;SDS011;54388;53.536;49.300;2023-05-16T05:40:38;17.27;;;10.10;;
67558;SDS011;54388;53.536;49.300;2023-05-16T05:43:05;15.50;;;10.07;;
67558;SDS011;54388;53.536;49.300;2023-05-16T05:45:31;16.95;;;10.68;;
67558;SDS011;54388;53.536;49.300;2023-05-16T05:47:58;15.90;;;10.13;;
67558;SDS011;54388;53.536;49.300;2023-05-16T05:50:25;14.52;;;9.45;;
67558;SDS011;54388;53.536;49.300;2023-05-16T05:52:51;14.85;;;9.25;;
67558;SDS011;54388;53.536;49.300;2023-05-16T05:55:17;14.52;;;9.90;;
67558;SDS011;54388;53.536;49.300;2023-05-16T05:57:44;10.95;;;8.85;;
67558;SDS011;54388;53.536;49.300;2023-05-16T06:00:11;11.70;;;8.52;;
67558;SDS011;54388;53.536;49.300;2023-05-16T06:02:38;12.63;;;9.48;;
67558;SDS011;54388;53.536;49.300;2023-05-16T06:05:04;14.55;;;8.73;;
67558;SDS011;54388;53.536;49.300;2023-05-16T06:07:31;12.52;;;9.13;;
67558;SDS011;54388;53.536;49.300;2023-05-16T06:09:58;13.32;;;8.77;;
67558;SDS011;54388;53.536;49.300;2023-05-16T06:12:28;17.88;;;8.70;;
67558;SDS011;54388;53.536;49.300;2023-05-16T06:14:55;15.65;;;9.23;;
67558;SDS011;54388;53.536;49.300;2023-05-16T06:17:21;15.18;;;8.95;;
67558;SDS011;54388;53.536;49.300;2023-05-16T06:19:48;12.05;;;8.10;;
67558;SDS011;54388;53.536;49.300;2023-05-16T06:22:15;14.13;;;8.20;;
67558;SDS011;54388;53.536;49.300;2023-05-16T06:24:46;14.93;;;9.27;;
67558;SDS011;54388;53.536;49.300;2023-05-16T06:27:13;12.60;;;8.20;;
67558;SDS011;54388;53.536;49.300;2023-05-16T06:29:40;12.65;;;7.25;;
67558;SDS011;54388;53.536;49.300;2023-05-16T06:32:06;15.52;;;7.93;;
67558;SDS011;54388;53.536;49.300;2023-05-16T06:34:33;13.57;;;8.15;;
67558;SDS011;54388;53.536;49.300;2023-05-16T06:36:59;17.90;;;8.75;;
67558;SDS011;54388;53.536;49.300;2023-05-16T06:39:28;18.33;;;8.48;;
67558;SDS011;54388;53.536;49.300;2023-05-16T06:41:54;25.70;;;9.98;;
67558;SDS011;54388;53.536;49.300;2023-05-16T06:44:21;17.23;;;7.95;;
67558;SDS011;54388;53.536;49.300;2023-05-16T06:46:48;20.92;;;8.50;;
67558;SDS011;54388;53.536;49.300;2023-05-16T06:49:15;27.77;;;9.30;;
67558;SDS011;54388;53.536;49.300;2023-05-16T06:51:41;18.40;;;8.32;;
67558;SDS011;54388;53.536;49.300;2023-05-16T06:54:07;13.30;;;7.95;;
67558;SDS011;54388;53.536;49.300;2023-05-16T06:56:34;12.50;;;8.60;;
67558;SDS011;54388;53.536;49.300;2023-05-16T06:59:01;12.30;;;8.10;;
67558;SDS011;54388;53.536;49.300;2023-05-16T07:01:27;14.27;;;8.35;;
67558;SDS011;54388;53.536;49.300;2023-05-16T07:03:53;19.45;;;8.18;;
67558;SDS011;54388;53.536;49.300;2023-05-16T07:06:20;14.45;;;8.48;;
67558;SDS011;54388;53.536;49.300;2023-05-16T07:08:46;12.77;;;7.90;;
67558;SDS011;54388;53.536;49.300;2023-05-16T07:11:13;11.75;;;8.55;;
67558;SDS011;54388;53.536;49.300;2023-05-16T07:13:39;15.75;;;8.38;;
67558;SDS011;54388;53.536;49.300;2023-05-16T07:16:06;19.83;;;10.80;;
67558;SDS011;54388;53.536;49.300;2023-05-16T07:18:33;17.05;;;9.13;;
67558;SDS011;54388;53.536;49.300;2023-05-16T07:21:00;10.63;;;8.20;;
67558;SDS011;54388;53.536;49.300;2023-05-16T07:23:26;15.88;;;8.70;;
67558;SDS011;54388;53.536;49.300;2023-05-16T07:25:58;15.85;;;9.68;;
67558;SDS011;54388;53.536;49.300;2023-05-16T07:28:24;13.18;;;9.73;;
67558;SDS011;54388;53.536;49.300;2023-05-16T07:30:51;18.88;;;11.07;;
67558;SDS011;54388;53.536;49.300;2023-05-16T07:33:17;16.02;;;10.18;;
67558;SDS011;54388;53.536;49.300;2023-05-16T07:35:44;16.25;;;9.98;;
67558;SDS011;54388;53.536;49.300;2023-05-16T07:38:10;16.92;;;9.82;;
67558;SDS011;54388;53.536;49.300;2023-05-16T07:40:37;13.48;;;10.57;;
67558;SDS011;54388;53.536;49.300;2023-05-16T07:43:04;17.73;;;12.95;;
67558;SDS011;54388;53.536;49.300;2023-05-16T07:45:30;16.40;;;12.35;;
67558;SDS011;54388;53.536;49.300;2023-05-16T07:47:57;16.20;;;12.98;;
67558;SDS011;54388;53.536;49.300;2023-05-16T07:50:24;20.65;;;12.70;;
67558;SDS011;54388;53.536;49.300;2023-05-16T07:52:51;16.27;;;12.25;;
67558;SDS011;54388;53.536;49.300;2023-05-16T07:55:18;15.98;;;11.60;;
67558;SDS011;54388;53.536;49.300;2023-05-16T07:57:47;18.10;;;11.48;;
67558;SDS011;54388;53.536;49.300;2023-05-16T08:00:14;17.67;;;11.95;;
67558;SDS011;54388;53.536;49.300;2023-05-16T08:02:41;16.73;;;12.15;;
67558;SDS011;54388;53.536;49.300;2023-05-16T08:05:07;17.80;;;13.55;;
67558;SDS011;54388;53.536;49.300;2023-05-16T08:07:34;15.40;;;11.95;;
67558;SDS011;54388;53.536;49.300;2023-05-16T08:10:00;13.35;;;11.27;;
67558;SDS011;54388;53.536;49.300;2023-05-16T08:12:28;18.20;;;11.60;;
67558;SDS011;54388;53.536;49.300;2023-05-16T08:14:55;13.55;;;11.27;;
67558;SDS011;54388;53.536;49.300;2023-05-16T08:17:22;16.50;;;12.93;;
67558;SDS011;54388;53.536;49.300;2023-05-16T08:19:48;16.40;;;12.60;;
67558;SDS011;54388;53.536;49.300;2023-05-16T08:22:15;18.02;;;13.70;;
67558;SDS011;54388;53.536;49.300;2023-05-16T08:24:47;15.75;;;11.52;;
67558;SDS011;54388;53.536;49.300;2023-05-16T08:27:13;20.50;;;14.15;;
67558;SDS011;54388;53.536;49.300;2023-05-16T08:29:40;23.33;;;13.60;;
67558;SDS011;54388;53.536;49.300;2023-05-16T08:32:07;16.00;;;13.43;;
67558;SDS011;54388;53.536;49.300;2023-05-16T08:34:35;26.40;;;15.68;;
67558;SDS011;54388;53.536;49.300;2023-05-16T08:37:02;19.73;;;15.23;;
67558;SDS011;54388;53.536;49.300;2023-05-16T08:39:28;18.73;;;14.15;;
67558;SDS011;54388;53.536;49.300;2023-05-16T08:41:55;22.08;;;15.00;;
67558;SDS011;54388;53.536;49.300;2023-05-16T08:44:23;18.63;;;13.95;;
67558;SDS011;54388;53.536;49.300;2023-05-16T08:46:50;18.13;;;14.23;;
67558;SDS011;54388;53.536;49.300;2023-05-16T08:49:27;21.40;;;14.68;;
67558;SDS011;54388;53.536;49.300;2023-05-16T08:51:56;16.40;;;13.80;;
67558;SDS011;54388;53.536;49.300;2023-05-16T08:54:23;17.33;;;14.50;;
67558;SDS011;54388;53.536;49.300;2023-05-16T08:56:51;19.17;;;15.23;;
67558;SDS011;54388;53.536;49.300;2023-05-16T08:59:19;18.27;;;14.73;;
67558;SDS011;54388;53.536;49.300;2023-05-16T09:01:45;18.70;;;14.77;;
67558;SDS011;54388;53.536;49.300;2023-05-16T09:04:12;21.67;;;14.70;;
67558;SDS011;54388;53.536;49.300;2023-05-16T09:06:40;20.00;;;15.13;;
67558;SDS011;54388;53.536;49.300;2023-05-16T09:09:06;18.33;;;14.75;;
67558;SDS011;54388;53.536;49.300;2023-05-16T09:11:37;20.52;;;15.50;;
67558;SDS011;54388;53.536;49.300;2023-05-16T09:14:04;20.08;;;15.38;;
67558;SDS011;54388;53.536;49.300;2023-05-16T09:16:31;19.85;;;15.77;;
67558;SDS011;54388;53.536;49.300;2023-05-16T09:18:58;23.10;;;16.63;;
67558;SDS011;54388;53.536;49.300;2023-05-16T09:21:29;18.73;;;15.35;;
67558;SDS011;54388;53.536;49.300;2023-05-16T09:24:06;20.15;;;15.38;;
67558;SDS011;54388;53.536;49.300;2023-05-16T09:26:39;20.05;;;16.08;;
67558;SDS011;54388;53.536;49.300;2023-05-16T09:29:11;20.10;;;16.77;;
67558;SDS011;54388;53.536;49.300;2023-05-16T09:31:38;19.02;;;16.25;;
67558;SDS011;54388;53.536;49.300;2023-05-16T09:34:08;20.40;;;17.08;;
67558;SDS011;54388;53.536;49.300;2023-05-16T09:36:37;21.95;;;17.10;;
67558;SDS011;54388;53.536;49.300;2023-05-16T09:39:07;20.48;;;16.88;;
67558;SDS011;54388;53.536;49.300;2023-05-16T09:41:34;21.10;;;17.15;;
67558;SDS011;54388;53.536;49.300;2023-05-16T09:44:07;18.60;;;16.60;;
67558;SDS011;54388;53.536;49.300;2023-05-16T09:46:33;19.20;;;16.85;;
67558;SDS011;54388;53.536;49.300;2023-05-16T09:49:01;21.05;;;17.30;;
67558;SDS011;54388;53.536;49.300;2023-05-16T09:51:28;20.73;;;17.23;;
67558;SDS011;54388;53.536;49.300;2023-05-16T09:53:54;21.05;;;17.33;;
67558;SDS011;54388;53.536;49.300;2023-05-16T09:56:24;20.35;;;17.35;;
67558;SDS011;54388;53.536;49.300;2023-05-16T09:58:50;19.70;;;17.58;;
67558;SDS011;54388;53.536;49.300;2023-05-16T10:01:17;20.73;;;17.48;;
67558;SDS011;54388;53.536;49.300;2023-05-16T10:03:43;21.85;;;17.83;;
67558;SDS011;54388;53.536;49.300;2023-05-16T10:06:10;21.33;;;17.38;;
67558;SDS011;54388;53.536;49.300;2023-05-16T10:08:38;23.58;;;18.27;;
67558;SDS011;54388;53.536;49.300;2023-05-16T10:11:08;32.03;;;25.25;;
67558;SDS011;54388;53.536;49.300;2023-05-16T10:13:35;34.92;;;28.02;;
67558;SDS011;54388;53.536;49.300;2023-05-16T10:16:05;26.52;;;21.15;;
67558;SDS011;54388;53.536;49.300;2023-05-16T10:18:36;14.63;;;12.00;;
67558;SDS011;54388;53.536;49.300;2023-05-16T10:21:05;18.27;;;12.75;;
67558;SDS011;54388;53.536;49.300;2023-05-16T10:23:35;27.25;;;13.98;;
67558;SDS011;54388;53.536;49.300;2023-05-16T10:26:11;22.33;;;15.15;;
67558;SDS011;54388;53.536;49.300;2023-05-16T10:28:40;20.75;;;14.32;;
67558;SDS011;54388;53.536;49.300;2023-05-16T10:31:09;18.98;;;12.88;;
67558;SDS011;54388;53.536;49.300;2023-05-16T10:33:36;17.77;;;11.50;;
67558;SDS011;54388;53.536;49.300;2023-05-16T10:36:03;16.10;;;8.48;;
67558;SDS011;54388;53.536;49.300;2023-05-16T10:38:31;13.95;;;9.10;;
67558;SDS011;54388;53.536;49.300;2023-05-16T10:40:59;15.77;;;8.95;;
67558;SDS011;54388;53.536;49.300;2023-05-16T10:43:29;13.07;;;8.93;;
67558;SDS011;54388;53.536;49.300;2023-05-16T10:45:56;12.10;;;9.57;;
67558;SDS011;54388;53.536;49.300;2023-05-16T10:48:35;13.55;;;10.15;;
67558;SDS011;54388;53.536;49.300;2023-05-16T10:51:21;18.45;;;10.35;;
67558;SDS011;54388;53.536;49.300;2023-05-16T10:54:09;18.88;;;10.70;;
67558;SDS011;54388;53.536;49.300;2023-05-16T10:56:37;20.77;;;10.77;;
67558;SDS011;54388;53.536;49.300;2023-05-16T10:59:03;17.50;;;10.60;;
67558;SDS011;54388;53.536;49.300;2023-05-16T11:01:46;18.23;;;11.77;;
67558;SDS011;54388;53.536;49.300;2023-05-16T11:04:18;16.63;;;11.15;;
67558;SDS011;54388;53.536;49.300;2023-05-16T11:06:45;17.65;;;11.48;;
67558;SDS011;54388;53.536;49.300;2023-05-16T11:09:17;19.77;;;11.82;;
67558;SDS011;54388;53.536;49.300;2023-05-16T11:11:52;20.98;;;12.93;;
67558;SDS011;54388;53.536;49.300;2023-05-16T11:14:34;20.20;;;12.32;;
67558;SDS011;54388;53.536;49.300;2023-05-16T11:17:19;15.98;;;12.25;;
67558;SDS011;54388;53.536;49.300;2023-05-16T11:19:52;14.07;;;12.48;;
67558;SDS011;54388;53.536;49.300;2023-05-16T11:22:24;16.13;;;13.55;;
67558;SDS011;54388;53.536;49.300;2023-05-16T11:24:59;15.85;;;11.52;;
67558;SDS011;54388;53.536;49.300;2023-05-16T11:27:31;17.55;;;10.70;;
67558;SDS011;54388;53.536;49.300;2023-05-16T11:30:00;12.65;;;11.00;;
67558;SDS011;54388;53.536;49.300;2023-05-16T11:32:41;21.77;;;12.68;;
67558;SDS011;54388;53.536;49.300;2023-05-16T11:35:09;21.65;;;11.95;;
67558;SDS011;54388;53.536;49.300;2023-05-16T11:37:38;17.08;;;12.80;;
67558;SDS011;54388;53.536;49.300;2023-05-16T11:40:06;21.50;;;12.52;;
67558;SDS011;54388;53.536;49.300;2023-05-16T11:42:35;20.00;;;13.27;;
67558;SDS011;54388;53.536;49.300;2023-05-16T11:45:10;18.80;;;13.05;;
67558;SDS011;54388;53.536;49.300;2023-05-16T11:47:39;22.90;;;13.68;;
67558;SDS011;54388;53.536;49.300;2023-05-16T11:50:10;17.55;;;12.82;;
67558;SDS011;54388;53.536;49.300;2023-05-16T11:52:48;26.25;;;12.65;;
67558;SDS011;54388;53.536;49.300;2023-05-16T11:55:21;18.90;;;11.95;;
67558;SDS011;54388;53.536;49.300;2023-05-16T11:57:50;15.05;;;10.85;;
67558;SDS011;54388;53.536;49.300;2023-05-16T12:00:17;15.73;;;10.77;;
67558;SDS011;54388;53.536;49.300;2023-05-16T12:02:46;17.52;;;10.85;;
67558;SDS011;54388;53.536;49.300;2023-05-16T12:05:14;19.92;;;10.73;;
67558;SDS011;54388;53.536;49.300;2023-05-16T12:07:42;14.77;;;11.02;;
67558;SDS011;54388;53.536;49.300;2023-05-16T12:10:11;14.10;;;11.30;;
67558;SDS011;54388;53.536;49.300;2023-05-16T12:12:46;20.25;;;11.65;;
67558;SDS011;54388;53.536;49.300;2023-05-16T12:15:14;24.13;;;11.90;;
67558;SDS011;54388;53.536;49.300;2023-05-16T12:17:40;16.30;;;10.98;;
67558;SDS011;54388;53.536;49.300;2023-05-16T12:20:07;17.50;;;10.60;;
67558;SDS011;54388;53.536;49.300;2023-05-16T12:22:44;20.10;;;11.90;;
67558;SDS011;54388;53.536;49.300;2023-05-16T12:25:26;17.70;;;11.25;;
67558;SDS011;54388;53.536;49.300;2023-05-16T12:27:56;14.65;;;11.48;;
67558;SDS011;54388;53.536;49.300;2023-05-16T12:30:24;14.80;;;12.52;;
67558;SDS011;54388;53.536;49.300;2023-05-16T12:32:54;21.08;;;14.90;;
67558;SDS011;54388;53.536;49.300;2023-05-16T12:35:21;23.45;;;14.93;;
67558;SDS011;54388;53.536;49.300;2023-05-16T12:37:54;22.37;;;14.60;;
67558;SDS011;54388;53.536;49.300;2023-05-16T12:40:21;18.35;;;14.07;;
67558;SDS011;54388;53.536;49.300;2023-05-16T12:42:52;18.65;;;14.90;;
67558;SDS011;54388;53.536;49.300;2023-05-16T12:45:19;20.23;;;15.00;;
67558;SDS011;54388;53.536;49.300;2023-05-16T12:47:48;22.30;;;14.52;;
67558;SDS011;54388;53.536;49.300;2023-05-16T12:50:15;26.60;;;15.95;;
67558;SDS011;54388;53.536;49.300;2023-05-16T12:52:46;21.00;;;14.63;;
67558;SDS011;54388;53.536;49.300;2023-05-16T12:55:14;19.35;;;14.68;;
67558;SDS011;54388;53.536;49.300;2023-05-16T12:57:42;20.17;;;14.52;;
67558;SDS011;54388;53.536;49.300;2023-05-16T13:00:10;24.83;;;15.27;;
67558;SDS011;54388;53.536;49.300;2023-05-16T13:02:38;18.55;;;14.45;;
67558;SDS011;54388;53.536;49.300;2023-05-16T13:05:05;18.17;;;14.55;;
67558;SDS011;54388;53.536;49.300;2023-05-16T13:07:33;20.83;;;14.77;;
67558;SDS011;54388;53.536;49.300;2023-05-16T13:09:59;24.70;;;15.10;;
67558;SDS011;54388;53.536;49.300;2023-05-16T13:12:26;33.20;;;15.73;;
67558;SDS011;54388;53.536;49.300;2023-05-16T13:14:53;23.33;;;15.55;;
67558;SDS011;54388;53.536;49.300;2023-05-16T13:17:19;27.83;;;16.23;;
67558;SDS011;54388;53.536;49.300;2023-05-16T13:19:46;29.42;;;16.23;;
67558;SDS011;54388;53.536;49.300;2023-05-16T13:22:12;28.35;;;15.85;;
67558;SDS011;54388;53.536;49.300;2023-05-16T13:24:44;29.30;;;14.88;;
67558;SDS011;54388;53.536;49.300;2023-05-16T13:27:14;19.30;;;13.95;;
67558;SDS011;54388;53.536;49.300;2023-05-16T13:29:42;23.58;;;13.75;;
67558;SDS011;54388;53.536;49.300;2023-05-16T13:32:09;35.65;;;15.98;;
67558;SDS011;54388;53.536;49.300;2023-05-16T13:34:36;19.80;;;13.23;;
67558;SDS011;54388;53.536;49.300;2023-05-16T13:37:02;23.70;;;14.27;;
67558;SDS011;54388;53.536;49.300;2023-05-16T13:39:29;14.10;;;12.55;;
67558;SDS011;54388;53.536;49.300;2023-05-16T13:41:56;23.13;;;13.15;;
67558;SDS011;54388;53.536;49.300;2023-05-16T13:44:24;17.45;;;10.60;;
67558;SDS011;54388;53.536;49.300;2023-05-16T13:46:51;14.70;;;10.10;;
67558;SDS011;54388;53.536;49.300;2023-05-16T13:49:18;16.52;;;9.70;;
67558;SDS011;54388;53.536;49.300;2023-05-16T13:51:45;15.80;;;9.98;;
67558;SDS011;54388;53.536;49.300;2023-05-16T13:54:12;13.82;;;9.02;;
67558;SDS011;54388;53.536;49.300;2023-05-16T13:56:39;31.25;;;12.73;;
67558;SDS011;54388;53.536;49.300;2023-05-16T13:59:05;24.02;;;11.00;;
67558;SDS011;54388;53.536;49.300;2023-05-16T14:01:32;19.33;;;10.77;;
67558;SDS011;54388;53.536;49.300;2023-05-16T14:03:59;14.32;;;9.73;;
67558;SDS011;54388;53.536;49.300;2023-05-16T14:06:25;20.50;;;9.90;;
67558;SDS011;54388;53.536;49.300;2023-05-16T14:08:53;26.35;;;10.80;;
67558;SDS011;54388;53.536;49.300;2023-05-16T14:11:19;21.08;;;10.50;;
67558;SDS011;54388;53.536;49.300;2023-05-16T14:13:51;24.83;;;10.75;;
67558;SDS011;54388;53.536;49.300;2023-05-16T14:16:18;13.82;;;9.70;;
67558;SDS011;54388;53.536;49.300;2023-05-16T14:18:45;14.05;;;9.98;;
67558;SDS011;54388;53.536;49.300;2023-05-16T14:21:12;18.60;;;10.93;;
67558;SDS011;54388;53.536;49.300;2023-05-16T14:23:39;23.00;;;11.02;;
67558;SDS011;54388;53.536;49.300;2023-05-16T14:26:11;13.13;;;9.80;;
67558;SDS011;54388;53.536;49.300;2023-05-16T14:28:37;14.25;;;10.43;;
67558;SDS011;54388;53.536;49.300;2023-05-16T14:31:04;14.68;;;11.05;;
67558;SDS011;54388;53.536;49.300;2023-05-16T14:33:31;21.10;;;12.57;;